createdAt,value
2023-01-20T00:02:25.000Z,36.29
2023-01-20T00:07:24.000Z,35.84
2023-01-20T00:12:24.000Z,37.83
2023-01-20T00:17:24.000Z,37.64
2023-01-20T00:22:24.000Z,39.98
2023-01-20T00:27:24.000Z,35.28
2023-01-20T00:32:24.000Z,34.72
2023-01-20T00:37:25.000Z,38.22
2023-01-20T00:42:25.000Z,38.43
2023-01-20T00:47:24.000Z,37.88
2023-01-20T00:52:25.000Z,35.72
2023-01-20T00:57:24.000Z,38.56
2023-01-20T01:02:24.000Z,36.81
2023-01-20T01:07:25.000Z,37.69
2023-01-20T01:12:24.000Z,38.87
2023-01-20T01:17:24.000Z,37.76
2023-01-20T01:22:24.000Z,38.04
2023-01-20T01:27:25.000Z,37.17
2023-01-20T01:32:24.000Z,35
2023-01-20T01:37:24.000Z,35.07
2023-01-20T01:42:24.000Z,35.75
2023-01-20T01:47:25.000Z,38.11
2023-01-20T01:52:24.000Z,36.91
2023-01-20T01:57:25.000Z,35.07
2023-01-20T02:02:24.000Z,37.32
2023-01-20T02:07:24.000Z,35.05
2023-01-20T02:12:24.000Z,36.29
2023-01-20T02:17:25.000Z,34.99
2023-01-20T02:27:24.000Z,35.63
2023-01-20T02:32:24.000Z,37.04
2023-01-20T02:37:25.000Z,35.86
2023-01-20T02:42:25.000Z,36.33
2023-01-20T02:47:24.000Z,35.23
2023-01-20T02:52:25.000Z,34.34
2023-01-20T02:57:24.000Z,34.83
2023-01-20T03:02:24.000Z,34.39
2023-01-20T03:07:24.000Z,34.49
2023-01-20T03:12:24.000Z,34.26
2023-01-20T03:17:24.000Z,35.88
2023-01-20T03:27:24.000Z,33.43
2023-01-20T03:32:24.000Z,33.72
2023-01-20T03:37:24.000Z,34.06
2023-01-20T03:42:25.000Z,34.46
2023-01-20T03:47:24.000Z,32.7
2023-01-20T03:52:24.000Z,32.21
2023-01-20T03:57:25.000Z,32.94
2023-01-20T04:07:25.000Z,32.51
2023-01-20T04:12:24.000Z,31.15
2023-01-20T04:17:24.000Z,29.61
2023-01-20T04:22:24.000Z,31.38
2023-01-20T04:27:24.000Z,31.71
2023-01-20T04:32:24.000Z,31.06
2023-01-20T04:37:24.000Z,31.04
2023-01-20T04:42:24.000Z,31.08
2023-01-20T04:47:25.000Z,32.57
2023-01-20T04:52:24.000Z,30.96
2023-01-20T04:57:25.000Z,31.16
2023-01-20T05:02:24.000Z,30.77
2023-01-20T05:07:25.000Z,31.08
2023-01-20T05:12:24.000Z,31.47
2023-01-20T05:17:24.000Z,31.54
2023-01-20T05:22:25.000Z,31.36
2023-01-20T05:27:24.000Z,32.16
2023-01-20T05:32:24.000Z,31.6
2023-01-20T05:37:24.000Z,31.21
2023-01-20T05:42:25.000Z,31.16
2023-01-20T05:47:24.000Z,32.49
2023-01-20T05:52:25.000Z,32.92
2023-01-20T05:57:24.000Z,30.87
2023-01-20T06:02:25.000Z,30.47
2023-01-20T06:07:24.000Z,32.32
2023-01-20T06:12:25.000Z,31.52
2023-01-20T06:22:24.000Z,32.77
2023-01-20T06:27:24.000Z,33.46
2023-01-20T06:32:25.000Z,33.66
2023-01-20T06:37:24.000Z,32.99
2023-01-20T06:42:25.000Z,32.76
2023-01-20T06:47:25.000Z,32.93
2023-01-20T06:52:25.000Z,32.22
2023-01-20T06:57:24.000Z,33.42
2023-01-20T07:02:24.000Z,33.82
2023-01-20T07:07:24.000Z,30.78
2023-01-20T07:12:25.000Z,32.63
2023-01-20T07:17:24.000Z,33.86
2023-01-20T07:22:24.000Z,32.51
2023-01-20T07:27:24.000Z,32.62
2023-01-20T07:32:25.000Z,31.71
2023-01-20T07:37:24.000Z,31.19
2023-01-20T07:42:25.000Z,31.92
2023-01-20T07:47:24.000Z,30.2
2023-01-20T07:52:25.000Z,30.6
2023-01-20T07:57:24.000Z,31.51
2023-01-20T08:02:24.000Z,31.32
2023-01-20T08:07:25.000Z,31.57
2023-01-20T08:12:25.000Z,32.22
2023-01-20T08:17:24.000Z,29.69
2023-01-20T08:22:25.000Z,28.85
2023-01-20T08:27:24.000Z,30.85
2023-01-20T08:32:25.000Z,30.12
2023-01-20T08:37:24.000Z,30.7
2023-01-20T08:42:24.000Z,29.94
2023-01-20T08:47:24.000Z,30.17
2023-01-20T08:52:24.000Z,28.57
2023-01-20T08:57:25.000Z,29.1
2023-01-20T09:02:25.000Z,31.19
2023-01-20T09:07:25.000Z,30.51
2023-01-20T09:17:24.000Z,29.39
2023-01-20T09:22:24.000Z,29.81
2023-01-20T09:27:25.000Z,29.92
2023-01-20T09:32:24.000Z,27.5
2023-01-20T09:37:24.000Z,28.13
2023-01-20T09:42:24.000Z,28.35
2023-01-20T09:47:24.000Z,29.79
2023-01-20T09:52:25.000Z,30.09
2023-01-20T09:57:24.000Z,28.15
2023-01-20T10:02:24.000Z,29.09
2023-01-20T10:07:24.000Z,29.09
2023-01-20T10:12:25.000Z,29.29
2023-01-20T10:22:25.000Z,29.05
2023-01-20T10:27:24.000Z,28.36
2023-01-20T10:32:24.000Z,27.4
2023-01-20T10:37:24.000Z,27.91
2023-01-20T10:42:24.000Z,27.16
2023-01-20T10:47:24.000Z,26.9
2023-01-20T10:52:24.000Z,26.48
2023-01-20T10:57:25.000Z,26.42
2023-01-20T11:02:25.000Z,26.17
2023-01-20T11:07:24.000Z,25.93
2023-01-20T11:12:24.000Z,26.56
2023-01-20T11:17:24.000Z,26.61
2023-01-20T11:22:25.000Z,27.19
2023-01-20T11:27:25.000Z,26.89
2023-01-20T11:32:24.000Z,26.21
2023-01-20T11:37:24.000Z,23.37
2023-01-20T11:42:24.000Z,24.82
2023-01-20T11:47:25.000Z,22.87
2023-01-20T11:52:24.000Z,23.23
2023-01-20T11:57:24.000Z,23.2
2023-01-20T12:02:24.000Z,22.16
2023-01-20T12:07:24.000Z,22.09
2023-01-20T12:12:25.000Z,21.77
2023-01-20T12:17:24.000Z,20.9
2023-01-20T12:22:24.000Z,22.25
2023-01-20T12:27:25.000Z,22.42
2023-01-20T12:32:24.000Z,20.89
2023-01-20T12:37:24.000Z,21.81
2023-01-20T12:42:24.000Z,20.81
2023-01-20T12:47:24.000Z,21.16
2023-01-20T12:52:25.000Z,21.27
2023-01-20T12:57:25.000Z,20.73
2023-01-20T13:02:24.000Z,20.07
2023-01-20T13:07:25.000Z,20.18
2023-01-20T13:22:25.000Z,22.49
2023-01-20T13:27:24.000Z,21.09
2023-01-20T13:32:25.000Z,20.11
2023-01-20T13:37:24.000Z,20.9
2023-01-20T13:42:24.000Z,20.34
2023-01-20T13:47:24.000Z,20.21
2023-01-20T13:52:25.000Z,20.46
2023-01-20T13:57:24.000Z,20.53
2023-01-20T14:02:25.000Z,20.44
2023-01-20T14:07:24.000Z,20.33
2023-01-20T14:12:24.000Z,20.16
2023-01-20T14:17:24.000Z,21
2023-01-20T14:22:24.000Z,20.33
2023-01-20T14:27:25.000Z,19.97
2023-01-20T14:32:24.000Z,19.91
2023-01-20T14:37:24.000Z,19.74
2023-01-20T14:42:24.000Z,20.1
2023-01-20T14:47:25.000Z,20.78
2023-01-20T14:52:24.000Z,20.88
2023-01-20T14:57:25.000Z,20.07
2023-01-20T15:02:24.000Z,20.39
2023-01-20T15:07:24.000Z,20.49
2023-01-20T15:12:25.000Z,20.01
2023-01-20T15:17:24.000Z,20.52
2023-01-20T15:22:25.000Z,20.1
2023-01-20T15:27:24.000Z,20.03
2023-01-20T15:32:24.000Z,20.54
2023-01-20T15:37:24.000Z,19.7
2023-01-20T15:42:25.000Z,20.09
2023-01-20T15:47:24.000Z,20.39
2023-01-20T15:52:24.000Z,20.83
2023-01-20T15:57:24.000Z,20.31
2023-01-20T16:02:24.000Z,21.41
2023-01-20T16:07:25.000Z,19.95
2023-01-20T16:12:25.000Z,21.29
2023-01-20T16:17:24.000Z,20.63
2023-01-20T16:22:24.000Z,20.12
2023-01-20T16:27:24.000Z,20.74
2023-01-20T16:32:24.000Z,22.26
2023-01-20T16:37:25.000Z,22.58
2023-01-20T16:42:24.000Z,21.64
2023-01-20T16:47:24.000Z,21.71
2023-01-20T16:52:24.000Z,21.86
2023-01-20T16:57:24.000Z,21.97
2023-01-20T17:02:25.000Z,22.25
2023-01-20T17:07:24.000Z,22.32
2023-01-20T17:12:24.000Z,22.22
2023-01-20T17:17:25.000Z,22.61
2023-01-20T17:22:24.000Z,22.18
2023-01-20T17:27:25.000Z,22.44
2023-01-20T17:32:24.000Z,22.21
2023-01-20T17:37:25.000Z,22.84
2023-01-20T17:42:24.000Z,22.25
2023-01-20T17:47:25.000Z,23.16
2023-01-20T17:52:24.000Z,23.25
2023-01-20T17:57:25.000Z,23.36
2023-01-20T18:02:24.000Z,23.18
2023-01-20T18:07:24.000Z,22.17
2023-01-20T18:12:24.000Z,22.64
2023-01-20T18:17:25.000Z,24.22
2023-01-20T18:22:24.000Z,24.06
2023-01-20T18:27:25.000Z,23.94
2023-01-20T18:32:25.000Z,25.67
2023-01-20T18:37:25.000Z,25.81
2023-01-20T18:42:24.000Z,27.58
2023-01-20T18:47:25.000Z,28.88
2023-01-20T18:52:24.000Z,29.49
2023-01-20T18:57:24.000Z,28.84
2023-01-20T19:02:24.000Z,29.45
2023-01-20T19:07:25.000Z,31.59
2023-01-20T19:12:24.000Z,31.3
2023-01-20T19:17:25.000Z,31.4
2023-01-20T19:22:24.000Z,32.15
2023-01-20T19:27:25.000Z,31.99
2023-01-20T19:32:24.000Z,32.36
2023-01-20T19:37:25.000Z,31.3
2023-01-20T19:42:24.000Z,31.49
2023-01-20T19:47:25.000Z,31.86
2023-01-20T19:52:24.000Z,31.26
2023-01-20T19:57:24.000Z,29.74
2023-01-20T20:02:24.000Z,28.12
2023-01-20T20:07:24.000Z,27.44
2023-01-20T20:12:25.000Z,26.79
2023-01-20T20:17:25.000Z,25.43
2023-01-20T20:22:25.000Z,24.7
2023-01-20T20:27:24.000Z,22.71
2023-01-20T20:32:24.000Z,22.17
2023-01-20T20:37:24.000Z,21.02
2023-01-20T20:42:24.000Z,21.39
2023-01-20T20:47:24.000Z,20.57
2023-01-20T20:52:24.000Z,20.28
2023-01-20T20:57:25.000Z,18.48
2023-01-20T21:02:25.000Z,16.65
2023-01-20T21:07:24.000Z,17
2023-01-20T21:12:24.000Z,16.19
2023-01-20T21:22:24.000Z,15.06
2023-01-20T21:27:25.000Z,13.64
2023-01-20T21:32:24.000Z,14.22
2023-01-20T21:37:24.000Z,13.45
2023-01-20T21:42:24.000Z,13.24
2023-01-20T21:47:24.000Z,13.63
2023-01-20T21:52:24.000Z,12.38
2023-01-20T21:57:25.000Z,13.21
2023-01-20T22:02:24.000Z,12.23
2023-01-20T22:07:24.000Z,12.95
2023-01-20T22:12:25.000Z,12.37
2023-01-20T22:17:24.000Z,12.07
2023-01-20T22:22:25.000Z,12.57
2023-01-20T22:27:24.000Z,12.01
2023-01-20T22:32:25.000Z,11.61
2023-01-20T22:37:24.000Z,11.98
2023-01-20T22:42:24.000Z,12.04
2023-01-20T22:47:25.000Z,12.1
2023-01-20T22:52:24.000Z,11.4
2023-01-20T22:57:24.000Z,11.58
2023-01-20T23:02:24.000Z,11.6
2023-01-20T23:07:24.000Z,11.7
2023-01-20T23:12:24.000Z,11.66
2023-01-20T23:17:24.000Z,11.12
2023-01-20T23:22:24.000Z,11.35
2023-01-20T23:27:24.000Z,11.42
2023-01-20T23:32:24.000Z,11.23
2023-01-20T23:37:24.000Z,11.68
2023-01-20T23:42:25.000Z,11.05
2023-01-20T23:47:24.000Z,11.2
2023-01-20T23:52:25.000Z,11.23
2023-01-20T23:57:24.000Z,10.92
